Time;durP1;ratioP1;P1;durP2;ratioP2;P2;SDS_P1;SDS_P2;PMS_P1;PMS_P2;Temp;Humidity;BMP_temperature;BMP_pressure;BME280_temperature;BME280_humidity;BME280_pressure;Samples;Min_cycle;Max_cycle;Signal;HPM_P1;HPM_P2
2021/03/26 00:00:52;;;;;;;46.37;41.37;;;;;21.30;100876.00;;;;2077753;28;20221;-47
2021/03/26 00:01:52;;;;;;;45.22;40.33;;;;;21.40;100875.00;;;;2078332;28;20352;-47
2021/03/26 00:02:53;;;;;;;46.23;41.20;;;;;21.40;100866.00;;;;2077943;28;20264;-47
2021/03/26 00:03:54;;;;;;;44.17;39.40;;;;;21.30;100874.00;;;;2077988;28;20206;-46
2021/03/26 00:04:54;;;;;;;44.55;39.65;;;;;21.30;100871.00;;;;2070218;28;20222;-46
2021/03/26 00:05:57;;;;;;;42.03;37.67;;;;;21.30;100869.00;;;;2070167;28;20218;-47
2021/03/26 00:06:57;;;;;;;40.60;36.20;;;;;21.30;100864.00;;;;2071656;28;20230;-46
2021/03/26 00:07:58;;;;;;;44.97;40.17;;;;;21.30;100871.00;;;;2071078;28;20218;-46
2021/03/26 00:08:58;;;;;;;42.87;37.40;;;;;21.30;100870.00;;;;2069934;28;20215;-46
2021/03/26 00:09:59;;;;;;;40.30;35.90;;;;;21.30;100863.00;;;;2068726;28;20292;-47
2021/03/26 00:10:59;;;;;;;41.77;37.17;;;;;21.30;100877.00;;;;2069870;28;20211;-46
2021/03/26 00:12:04;;;;;;;39.83;35.47;;;;;21.30;100867.00;;;;2069910;28;20464;-46
2021/03/26 00:13:05;;;;;;;38.78;34.58;;;;;21.30;100879.00;;;;2069244;28;20262;-46
2021/03/26 00:14:06;;;;;;;39.70;34.97;;;;;21.30;100870.00;;;;2069423;28;20944;-46
2021/03/26 00:15:07;;;;;;;39.63;35.50;;;;;21.30;100868.00;;;;2077104;28;20206;-46
2021/03/26 00:16:08;;;;;;;39.00;34.75;;;;;21.30;100871.00;;;;2077507;28;20332;-47
2021/03/26 00:17:08;;;;;;;36.63;32.50;;;;;21.30;100866.00;;;;2076353;28;20236;-46
2021/03/26 00:18:08;;;;;;;37.50;33.43;;;;;21.30;100873.00;;;;2070706;28;20210;-46
2021/03/26 00:19:09;;;;;;;37.70;33.70;;;;;21.30;100874.00;;;;2069966;28;20491;-50
2021/03/26 00:20:10;;;;;;;36.90;33.00;;;;;21.30;100871.00;;;;2072348;28;20214;-47
2021/03/26 00:21:10;;;;;;;36.37;32.60;;;;;21.30;100870.00;;;;2069641;28;20272;-46
2021/03/26 00:22:11;;;;;;;35.47;31.83;;;;;21.30;100869.00;;;;2073652;28;20540;-46
2021/03/26 00:23:11;;;;;;;35.83;31.77;;;;;21.30;100870.00;;;;2068991;28;20684;-46
2021/03/26 00:24:12;;;;;;;33.17;29.77;;;;;21.30;100870.00;;;;2069885;28;20218;-46
2021/03/26 00:25:12;;;;;;;35.57;31.73;;;;;21.30;100872.00;;;;2069528;28;20211;-46
2021/03/26 00:26:13;;;;;;;32.40;28.93;;;;;21.30;100870.00;;;;2069579;28;20298;-47
2021/03/26 00:27:13;;;;;;;33.20;29.70;;;;;21.30;100860.00;;;;2069015;28;20684;-47
2021/03/26 00:28:13;;;;;;;33.20;29.67;;;;;21.30;100866.00;;;;2069400;28;20237;-47
2021/03/26 00:29:14;;;;;;;31.10;27.90;;;;;21.30;100869.00;;;;2069291;28;20304;-46
2021/03/26 00:30:15;;;;;;;33.47;29.87;;;;;21.30;100871.00;;;;2076382;28;20228;-46
2021/03/26 00:31:15;;;;;;;32.03;28.70;;;;;21.30;100870.00;;;;2077100;28;20235;-47
2021/03/26 00:32:16;;;;;;;33.67;30.10;;;;;21.30;100872.00;;;;2077186;28;20222;-46
2021/03/26 00:33:16;;;;;;;32.13;28.63;;;;;21.20;100874.00;;;;2077433;28;20818;-45
2021/03/26 00:34:17;;;;;;;31.30;28.00;;;;;21.20;100868.00;;;;2077483;28;20925;-46
2021/03/26 00:35:22;;;;;;;31.37;28.07;;;;;21.20;100863.00;;;;2077642;28;20317;-47
2021/03/26 00:36:23;;;;;;;31.88;28.50;;;;;21.20;100866.00;;;;2077976;28;20570;-46
2021/03/26 00:37:23;;;;;;;30.67;27.37;;;;;21.20;100867.00;;;;2077695;28;20415;-46
2021/03/26 00:38:24;;;;;;;30.10;26.90;;;;;21.20;100870.00;;;;2077631;28;20220;-45
2021/03/26 00:39:24;;;;;;;28.70;25.73;;;;;21.20;100876.00;;;;2077737;28;20683;-46
2021/03/26 00:40:24;;;;;;;28.97;25.97;;;;;21.20;100869.00;;;;2076705;28;20826;-46
2021/03/26 00:41:25;;;;;;;29.00;24.90;;;;;21.20;100871.00;;;;2076707;28;20919;-46
2021/03/26 00:42:25;;;;;;;28.50;25.53;;;;;21.20;100866.00;;;;2078032;28;20198;-46
2021/03/26 00:43:26;;;;;;;29.20;26.30;;;;;21.20;100867.00;;;;2077482;28;20206;-48
2021/03/26 00:44:26;;;;;;;28.23;25.43;;;;;21.20;100873.00;;;;2077969;28;20209;-47
2021/03/26 00:45:29;;;;;;;28.43;25.43;;;;;21.20;100859.00;;;;2078162;28;20217;-46
2021/03/26 00:46:29;;;;;;;27.02;24.13;;;;;21.20;100866.00;;;;2078311;28;20205;-46
2021/03/26 00:47:29;;;;;;;26.93;24.20;;;;;21.20;100862.00;;;;2073882;28;20211;-46
2021/03/26 00:48:30;;;;;;;26.10;23.40;;;;;21.20;100866.00;;;;2070653;28;20214;-47
2021/03/26 00:49:30;;;;;;;27.10;24.20;;;;;21.20;100866.00;;;;2073136;28;20214;-47
2021/03/26 00:50:39;;;;;;;26.40;23.60;;;;;21.20;100869.00;;;;2071153;28;20253;-45
2021/03/26 00:51:39;;;;;;;27.65;24.75;;;;;21.20;100864.00;;;;2069608;28;20206;-46
2021/03/26 00:52:39;;;;;;;25.93;23.30;;;;;21.20;100876.00;;;;2069561;28;20568;-47
2021/03/26 00:53:40;;;;;;;28.73;23.97;;;;;21.20;100871.00;;;;2069368;28;20211;-46
2021/03/26 00:54:40;;;;;;;25.27;22.67;;;;;21.20;100856.00;;;;2069705;28;20700;-46
2021/03/26 00:55:40;;;;;;;25.07;22.43;;;;;21.20;100858.00;;;;2072326;28;20688;-46
2021/03/26 00:56:41;;;;;;;24.37;21.83;;;;;21.20;100861.00;;;;2076097;28;20683;-47
2021/03/26 00:57:42;;;;;;;26.17;23.33;;;;;21.20;100860.00;;;;2069433;28;20210;-46
2021/03/26 00:58:42;;;;;;;25.07;22.67;;;;;21.20;100854.00;;;;2069178;28;20458;-47
2021/03/26 00:59:42;;;;;;;25.57;22.90;;;;;21.20;100853.00;;;;2069234;28;20587;-46
2021/03/26 01:00:43;;;;;;;27.17;23.33;;;;;21.20;100859.00;;;;2068461;28;20223;-45
2021/03/26 01:01:43;;;;;;;24.43;21.90;;;;;21.20;100859.00;;;;2069404;28;20530;-47
2021/03/26 01:02:43;;;;;;;24.07;21.57;;;;;21.20;100851.00;;;;2069611;28;21239;-47
2021/03/26 01:03:44;;;;;;;23.40;21.00;;;;;21.20;100854.00;;;;2069256;28;20591;-46
2021/03/26 01:04:44;;;;;;;23.00;20.60;;;;;21.10;100853.00;;;;2069571;28;20223;-47
2021/03/26 01:05:52;;;;;;;22.93;20.63;;;;;21.20;100855.00;;;;2069775;28;20309;-46
2021/03/26 01:06:53;;;;;;;24.00;21.35;;;;;21.20;100852.00;;;;2069791;28;20221;-46
2021/03/26 01:07:53;;;;;;;24.17;21.60;;;;;21.20;100863.00;;;;2072167;28;20241;-46
2021/03/26 01:08:53;;;;;;;22.87;20.67;;;;;21.20;100853.00;;;;2069457;28;20214;-46
2021/03/26 01:09:54;;;;;;;22.47;20.17;;;;;21.10;100854.00;;;;2068706;28;20746;-45
2021/03/26 01:10:59;;;;;;;23.57;20.63;;;;;21.10;100853.00;;;;2070031;28;20294;-47
2021/03/26 01:11:59;;;;;;;21.58;19.42;;;;;21.20;100853.00;;;;2062957;28;20745;-45
2021/03/26 01:13:00;;;;;;;21.40;19.13;;;;;21.10;100854.00;;;;2069493;28;20215;-46
2021/03/26 01:14:01;;;;;;;21.63;19.33;;;;;21.10;100849.00;;;;2069227;28;20219;-47
2021/03/26 01:15:02;;;;;;;21.30;19.20;;;;;21.10;100849.00;;;;2067736;28;20225;-46
2021/03/26 01:16:03;;;;;;;22.42;19.98;;;;;21.10;100845.00;;;;2068224;28;20222;-46
2021/03/26 01:17:05;;;;;;;20.50;18.30;;;;;21.10;100851.00;;;;2070012;28;20218;-47
2021/03/26 01:18:06;;;;;;;20.75;18.65;;;;;21.10;100856.00;;;;2074084;28;20206;-46
2021/03/26 01:19:07;;;;;;;20.67;18.52;;;;;20.90;100769.00;;;;2071276;28;20221;-46
2021/03/26 01:20:10;;;;;;;21.80;19.50;;;;;21.10;100848.00;;;;2070341;28;20278;-46
2021/03/26 01:21:12;;;;;;;19.52;17.58;;;;;21.10;100847.00;;;;2073759;28;20245;-46
2021/03/26 01:22:13;;;;;;;19.63;17.63;;;;;21.10;100837.00;;;;2071721;28;20221;-47
2021/03/26 01:23:13;;;;;;;20.20;18.10;;;;;21.10;100845.00;;;;2084760;28;20205;-46
2021/03/26 01:24:14;;;;;;;19.27;17.33;;;;;21.10;100846.00;;;;2078486;28;20216;-46
2021/03/26 01:25:20;;;;;;;20.30;18.17;;;;;21.10;100844.00;;;;2076644;28;20818;-47
2021/03/26 01:26:21;;;;;;;20.15;17.70;;;;;21.10;100827.00;;;;2077028;28;20213;-46
2021/03/26 01:27:21;;;;;;;19.10;17.20;;;;;21.10;100837.00;;;;2077037;28;20263;-46
2021/03/26 01:28:22;;;;;;;19.27;17.37;;;;;21.10;100829.00;;;;2076394;28;20721;-46
2021/03/26 01:29:23;;;;;;;19.42;17.42;;;;;21.10;100830.00;;;;2077093;28;20206;-46
2021/03/26 01:30:23;;;;;;;21.20;17.67;;;;;21.10;100823.00;;;;2074742;28;20702;-46
2021/03/26 01:31:24;;;;;;;19.10;17.20;;;;;21.10;100834.00;;;;2076629;28;20237;-47
2021/03/26 01:32:25;;;;;;;18.00;16.17;;;;;21.10;100831.00;;;;2076302;28;21036;-47
2021/03/26 01:33:25;;;;;;;18.23;16.43;;;;;21.10;100826.00;;;;2076333;28;20225;-46
2021/03/26 01:34:26;;;;;;;18.60;16.70;;;;;21.10;100834.00;;;;2077130;28;20243;-47
2021/03/26 01:35:27;;;;;;;18.43;16.43;;;;;21.10;100823.00;;;;2077134;28;20217;-46
2021/03/26 01:36:27;;;;;;;19.00;17.03;;;;;21.10;100823.00;;;;2077181;28;20226;-46
2021/03/26 01:37:27;;;;;;;18.10;16.30;;;;;21.10;100820.00;;;;2077799;28;20224;-46
2021/03/26 01:38:28;;;;;;;18.10;16.30;;;;;21.10;100821.00;;;;2076919;28;20225;-46
2021/03/26 01:39:28;;;;;;;17.57;15.93;;;;;21.00;100819.00;;;;2077101;28;20659;-45
2021/03/26 01:40:29;;;;;;;16.63;14.93;;;;;21.10;100821.00;;;;2076316;28;20221;-46
2021/03/26 01:41:36;;;;;;;17.15;15.45;;;;;21.10;100818.00;;;;2077797;28;20308;-46
2021/03/26 01:42:37;;;;;;;17.75;16.00;;;;;21.10;100817.00;;;;2077631;28;20892;-47
2021/03/26 01:43:39;;;;;;;18.20;16.60;;;;;21.00;100821.00;;;;2077645;28;20229;-47
2021/03/26 01:44:39;;;;;;;16.45;14.85;;;;;21.00;100815.00;;;;2079098;28;20468;-47
2021/03/26 01:45:40;;;;;;;17.20;15.50;;;;;21.00;100808.00;;;;2079195;28;20235;-47
2021/03/26 01:46:40;;;;;;;17.47;15.80;;;;;21.00;100816.00;;;;2079209;28;20233;-46
2021/03/26 01:47:41;;;;;;;17.00;15.30;;;;;21.00;100810.00;;;;2076246;28;20300;-47
2021/03/26 01:48:46;;;;;;;17.70;15.90;;;;;21.00;100808.00;;;;2072731;28;20605;-46
2021/03/26 01:49:46;;;;;;;17.25;15.43;;;;;21.00;100811.00;;;;2071542;28;20214;-47
2021/03/26 01:50:46;;;;;;;15.53;14.03;;;;;21.00;100804.00;;;;2070878;28;20215;-47
2021/03/26 01:51:48;;;;;;;15.50;13.90;;;;;21.00;100806.00;;;;2070738;28;20215;-47
2021/03/26 01:52:48;;;;;;;16.95;15.35;;;;;21.00;100801.00;;;;2071267;28;20599;-46
2021/03/26 01:53:48;;;;;;;16.37;14.63;;;;;21.00;100802.00;;;;2070602;28;20249;-47
2021/03/26 01:54:49;;;;;;;15.93;14.33;;;;;21.00;100801.00;;;;2079178;28;20206;-47
2021/03/26 01:55:49;;;;;;;16.10;14.43;;;;;21.00;100806.00;;;;2078891;28;20317;-46
2021/03/26 01:56:50;;;;;;;15.53;13.93;;;;;21.00;100802.00;;;;2079048;28;20210;-47
2021/03/26 01:57:50;;;;;;;15.83;14.33;;;;;21.00;100803.00;;;;2079089;28;20210;-47
2021/03/26 01:58:50;;;;;;;16.10;14.50;;;;;21.00;100802.00;;;;2079215;28;20210;-46
2021/03/26 01:59:51;;;;;;;16.43;14.73;;;;;21.00;100805.00;;;;2077465;28;20211;-46
2021/03/26 02:01:03;;;;;;;14.87;13.40;;;;;21.00;100794.00;;;;2077997;28;20244;-46
2021/03/26 02:02:12;;;;;;;16.15;14.50;;;;;21.00;100798.00;;;;2070460;28;20215;-46
2021/03/26 02:03:20;;;;;;;15.63;13.93;;;;;21.00;100797.00;;;;2065760;28;20219;-46
2021/03/26 02:04:26;;;;;;;14.30;12.90;;;;;21.00;100804.00;;;;2071387;28;20224;-46
2021/03/26 02:05:27;;;;;;;14.98;13.63;;;;;21.00;100799.00;;;;2068169;28;20246;-46
2021/03/26 02:06:30;;;;;;;15.07;13.77;;;;;21.00;100805.00;;;;2062756;28;20310;-46
2021/03/26 02:07:30;;;;;;;14.25;12.85;;;;;21.00;100802.00;;;;2059502;28;20570;-46
2021/03/26 02:08:33;;;;;;;14.40;13.00;;;;;21.00;100806.00;;;;2058660;28;20646;-47
2021/03/26 02:09:36;;;;;;;15.63;14.13;;;;;21.00;100805.00;;;;2077722;28;20376;-46
2021/03/26 02:10:36;;;;;;;15.30;13.90;;;;;21.00;100802.00;;;;2072736;28;20206;-47
2021/03/26 02:11:41;;;;;;;13.93;12.53;;;;;21.00;100800.00;;;;2069839;28;20228;-46
2021/03/26 02:12:41;;;;;;;14.30;12.88;;;;;21.00;100799.00;;;;2061412;28;20207;-45
2021/03/26 02:13:41;;;;;;;14.60;13.10;;;;;21.00;100805.00;;;;2061243;28;20803;-47
2021/03/26 02:14:44;;;;;;;13.77;12.43;;;;;21.00;100790.00;;;;2069461;28;20619;-46
2021/03/26 02:15:45;;;;;;;14.77;13.18;;;;;21.00;100799.00;;;;2069976;28;20230;-46
2021/03/26 02:16:46;;;;;;;13.70;12.30;;;;;21.00;100810.00;;;;2061054;28;20227;-46
2021/03/26 02:17:46;;;;;;;14.57;13.07;;;;;21.00;100797.00;;;;2059286;28;20207;-46
2021/03/26 02:18:46;;;;;;;14.83;13.43;;;;;21.00;100799.00;;;;2066608;28;20219;-47
2021/03/26 02:19:51;;;;;;;14.50;12.97;;;;;21.00;100796.00;;;;2074373;28;20617;-47
2021/03/26 02:20:56;;;;;;;13.68;12.32;;;;;21.00;100793.00;;;;2069817;28;20219;-47
2021/03/26 02:21:56;;;;;;;13.95;12.60;;;;;21.00;100794.00;;;;2074753;28;20222;-47
2021/03/26 02:22:57;;;;;;;13.90;12.60;;;;;21.00;100796.00;;;;2077518;28;20291;-47
2021/03/26 02:23:57;;;;;;;14.00;12.60;;;;;21.00;100787.00;;;;2069219;28;20218;-47
2021/03/26 02:24:58;;;;;;;14.00;12.70;;;;;21.00;100787.00;;;;2069785;28;20711;-48
2021/03/26 02:25:59;;;;;;;14.80;13.40;;;;;20.90;100779.00;;;;2070417;28;21068;-47
2021/03/26 02:27:05;;;;;;;12.80;11.70;;;;;21.00;100793.00;;;;2070331;28;20714;-46
2021/03/26 02:28:05;;;;;;;13.57;12.27;;;;;21.00;100786.00;;;;2075186;28;20565;-47
2021/03/26 02:29:22;;;;;;;14.40;13.00;;;;;20.90;100788.00;;;;2078491;28;20714;-46
2021/03/26 02:30:27;;;;;;;13.88;12.57;;;;;20.90;100790.00;;;;2077601;28;20757;-47
2021/03/26 02:31:27;;;;;;;14.35;12.95;;;;;21.00;100790.00;;;;2079158;28;20257;-47
2021/03/26 02:32:35;;;;;;;13.60;12.30;;;;;20.90;100786.00;;;;2078874;28;20648;-47
2021/03/26 02:33:36;;;;;;;13.75;12.43;;;;;21.00;100788.00;;;;2070343;28;20286;-48
2021/03/26 02:34:36;;;;;;;13.70;12.30;;;;;20.90;100784.00;;;;2070643;28;20226;-47
2021/03/26 02:35:39;;;;;;;13.73;12.43;;;;;20.90;100794.00;;;;2070938;28;20646;-47
2021/03/26 02:36:43;;;;;;;13.00;11.75;;;;;20.90;100785.00;;;;2070162;28;20214;-48
2021/03/26 02:37:47;;;;;;;14.30;12.63;;;;;20.90;100780.00;;;;2070565;28;20762;-47
2021/03/26 02:38:49;;;;;;;13.38;12.15;;;;;20.90;100787.00;;;;2074567;28;20761;-47
2021/03/26 02:39:55;;;;;;;13.38;12.13;;;;;20.90;100788.00;;;;2077772;28;20222;-48
2021/03/26 02:41:17;;;;;;;13.98;12.68;;;;;20.90;100784.00;;;;2078001;28;20226;-47
2021/03/26 02:42:20;;;;;;;13.00;11.75;;;;;20.90;100780.00;;;;2075059;28;20240;-47
2021/03/26 02:43:54;;;;;;;13.13;11.82;;;;;20.90;100782.00;;;;2070029;28;20585;-47
2021/03/26 02:45:00;;;;;;;13.32;12.02;;;;;20.90;100774.00;;;;2069666;28;20651;-47
2021/03/26 02:46:15;;;;;;;12.77;11.45;;;;;20.90;100780.00;;;;2070284;28;20645;-47
2021/03/26 02:47:41;;;;;;;14.70;13.20;;;;;20.90;100785.00;;;;2073061;28;20213;-46
2021/03/26 02:48:57;;;;;;;13.20;11.90;;;;;20.90;100785.00;;;;2069640;28;20266;-49
2021/03/26 02:50:26;;;;;;;13.23;11.93;;;;;20.90;100785.00;;;;2060706;28;20257;-47
2021/03/26 02:51:30;;;;;;;13.15;11.95;;;;;20.90;100787.00;;;;2070917;28;20826;-47
2021/03/26 02:52:58;;;;;;;13.80;12.40;;;;;20.90;100787.00;;;;2070397;28;22104;-47
2021/03/26 02:54:10;;;;;;;13.60;12.30;;;;;20.90;100785.00;;;;2072636;28;20236;-47
2021/03/26 02:55:13;;;;;;;12.50;11.15;;;;;20.90;100788.00;;;;2078404;28;20571;-47
2021/03/26 02:56:20;;;;;;;13.40;12.05;;;;;20.90;100792.00;;;;2072985;28;20640;-47
2021/03/26 02:57:29;;;;;;;13.35;12.15;;;;;20.90;100790.00;;;;2062167;28;21031;-47
2021/03/26 02:58:34;;;;;;;13.82;12.45;;;;;20.90;100780.00;;;;2068545;28;20213;-47
2021/03/26 02:59:37;;;;;;;13.30;12.00;;;;;20.80;100782.00;;;;2070393;28;20226;-46
2021/03/26 03:00:46;;;;;;;12.75;11.50;;;;;20.90;100772.00;;;;2077042;28;20641;-47
2021/03/26 03:01:51;;;;;;;12.60;11.40;;;;;20.90;100783.00;;;;2069332;28;20228;-47
2021/03/26 03:02:53;;;;;;;12.52;11.30;;;;;20.90;100782.00;;;;2070631;28;20253;-47
2021/03/26 03:03:56;;;;;;;12.98;11.77;;;;;20.90;100783.00;;;;2069664;28;20250;-47
2021/03/26 03:05:14;;;;;;;13.57;12.23;;;;;20.90;100787.00;;;;2062721;28;20219;-47
2021/03/26 03:06:19;;;;;;;12.77;11.60;;;;;20.80;100784.00;;;;2071859;28;20317;-47
2021/03/26 03:07:25;;;;;;;12.60;11.50;;;;;20.90;100783.00;;;;2069666;28;20206;-47
2021/03/26 03:08:28;;;;;;;11.40;10.40;;;;;20.90;100779.00;;;;2070114;28;20219;-47
2021/03/26 03:09:28;;;;;;;12.75;11.55;;;;;20.80;100784.00;;;;2069850;28;20242;-46
2021/03/26 03:10:36;;;;;;;14.33;12.40;;;;;20.80;100784.00;;;;2060221;28;20273;-46
2021/03/26 03:11:41;;;;;;;12.50;11.30;;;;;20.80;100771.00;;;;2071606;28;20206;-48
2021/03/26 03:12:42;;;;;;;13.45;12.13;;;;;20.90;100780.00;;;;2084481;28;20307;-46
2021/03/26 03:13:52;;;;;;;12.87;11.57;;;;;20.90;100777.00;;;;2078139;28;20674;-47
2021/03/26 03:14:59;;;;;;;12.75;11.52;;;;;20.80;100777.00;;;;2077326;28;20699;-47
2021/03/26 03:16:03;;;;;;;13.23;11.55;;;;;20.80;100769.00;;;;2070342;28;20782;-47
2021/03/26 03:17:15;;;;;;;12.55;11.35;;;;;20.80;100776.00;;;;2069711;28;20218;-46
2021/03/26 03:18:23;;;;;;;13.45;12.20;;;;;20.80;100776.00;;;;2070712;28;20229;-48
2021/03/26 03:19:31;;;;;;;13.13;11.73;;;;;20.80;100773.00;;;;2073473;28;20214;-47
2021/03/26 03:20:43;;;;;;;12.32;11.20;;;;;20.80;100776.00;;;;2070804;28;20655;-46
2021/03/26 03:22:08;;;;;;;12.05;10.95;;;;;20.80;100780.00;;;;2062686;28;20219;-47
2021/03/26 03:23:40;;;;;;;13.40;12.10;;;;;20.80;100778.00;;;;2067776;28;20674;-49
2021/03/26 03:24:42;;;;;;;12.55;11.38;;;;;20.80;100776.00;;;;2068446;28;20211;-47
2021/03/26 03:25:43;;;;;;;13.57;12.27;;;;;20.80;100775.00;;;;2077747;28;20233;-47
2021/03/26 03:27:04;;;;;;;11.90;10.70;;;;;20.80;100777.00;;;;2078130;28;20213;-46
2021/03/26 03:28:30;;;;;;;13.02;11.73;;;;;20.80;100778.00;;;;2077574;28;20638;-46
2021/03/26 03:29:52;;;;;;;12.05;10.85;;;;;20.80;100780.00;;;;2073870;28;20687;-46
2021/03/26 03:30:53;;;;;;;12.45;11.18;;;;;20.80;100781.00;;;;2074312;28;20702;-46
2021/03/26 03:32:17;;;;;;;12.23;11.13;;;;;20.80;100771.00;;;;2070587;28;20313;-47
2021/03/26 03:33:38;;;;;;;12.68;11.45;;;;;20.80;100776.00;;;;2075531;28;20729;-48
2021/03/26 03:34:40;;;;;;;12.43;11.20;;;;;20.80;100765.00;;;;2074261;28;20226;-47
2021/03/26 03:36:11;;;;;;;12.05;10.93;;;;;20.80;100784.00;;;;2069321;28;20211;-47
2021/03/26 03:37:26;;;;;;;13.18;11.88;;;;;20.80;100767.00;;;;2064857;28;20218;-46
2021/03/26 03:38:35;;;;;;;12.73;11.40;;;;;20.80;100778.00;;;;2072888;28;20252;-46
2021/03/26 03:39:43;;;;;;;12.10;10.93;;;;;20.80;100774.00;;;;2077262;28;20213;-46
2021/03/26 03:40:59;;;;;;;11.80;10.60;;;;;20.80;100769.00;;;;2069020;28;20217;-46
2021/03/26 03:42:04;;;;;;;12.60;11.40;;;;;20.80;100779.00;;;;2062509;28;20600;-46
2021/03/26 03:43:08;;;;;;;12.43;11.15;;;;;20.80;100777.00;;;;2068831;28;20229;-47
2021/03/26 03:44:23;;;;;;;12.13;11.00;;;;;20.80;100772.00;;;;2069315;28;20238;-46
2021/03/26 03:45:40;;;;;;;11.88;10.82;;;;;20.80;100769.00;;;;2069400;28;20217;-47
2021/03/26 03:46:46;;;;;;;12.35;11.20;;;;;20.80;100771.00;;;;2072602;28;20590;-46
2021/03/26 03:47:50;;;;;;;12.15;10.95;;;;;20.80;100776.00;;;;2064119;28;20234;-47
2021/03/26 03:49:20;;;;;;;11.27;10.15;;;;;20.80;100767.00;;;;2072536;28;20221;-48
2021/03/26 03:50:28;;;;;;;12.40;11.30;;;;;20.80;100768.00;;;;2071930;28;20207;-48
2021/03/26 03:51:37;;;;;;;12.23;11.05;;;;;20.70;100772.00;;;;2062405;28;20320;-46
2021/03/26 03:53:02;;;;;;;11.50;10.38;;;;;20.80;100761.00;;;;2074078;28;20296;-46
2021/03/26 03:54:48;;;;;;;13.10;11.90;;;;;20.70;100767.00;;;;2072546;28;20229;-47
2021/03/26 03:55:55;;;;;;;11.43;10.23;;;;;20.70;100775.00;;;;2061995;28;20282;-46
2021/03/26 03:57:07;;;;;;;12.30;11.15;;;;;20.70;100766.00;;;;2076095;28;20221;-47
2021/03/26 03:58:24;;;;;;;12.13;10.82;;;;;20.70;100765.00;;;;2070427;28;20377;-46
2021/03/26 03:59:53;;;;;;;11.25;10.15;;;;;20.70;100765.00;;;;2070583;28;20241;-47
2021/03/26 04:01:02;;;;;;;11.23;10.20;;;;;20.70;100759.00;;;;2072471;28;20591;-47
2021/03/26 04:02:05;;;;;;;13.07;11.80;;;;;20.70;100755.00;;;;2073153;28;20222;-47
2021/03/26 04:03:20;;;;;;;11.65;10.55;;;;;20.70;100759.00;;;;2077693;28;20763;-47
2021/03/26 04:04:27;;;;;;;11.65;10.45;;;;;20.70;100761.00;;;;2072205;28;20230;-47
2021/03/26 04:05:45;;;;;;;11.40;10.40;;;;;20.70;100753.00;;;;2071364;28;20215;-46
2021/03/26 04:07:00;;;;;;;11.52;10.43;;;;;20.70;100758.00;;;;2077286;28;20705;-47
2021/03/26 04:08:13;;;;;;;11.55;10.45;;;;;20.70;100757.00;;;;2073561;28;20207;-47
2021/03/26 04:09:15;;;;;;;12.23;11.02;;;;;20.70;100756.00;;;;2061266;28;20417;-47
2021/03/26 04:10:15;;;;;;;11.27;10.27;;;;;20.70;100756.00;;;;2053884;28;20693;-47
2021/03/26 04:11:26;;;;;;;11.70;10.53;;;;;20.70;100758.00;;;;2058822;28;20212;-48
2021/03/26 04:12:32;;;;;;;12.38;11.27;;;;;20.70;100752.00;;;;2074867;28;20275;-47
2021/03/26 04:13:39;;;;;;;10.90;9.88;;;;;20.70;100751.00;;;;2076116;28;20206;-47
2021/03/26 04:14:53;;;;;;;11.80;10.60;;;;;20.70;100756.00;;;;2070544;28;20206;-46
2021/03/26 04:16:00;;;;;;;11.20;10.15;;;;;20.70;100758.00;;;;2071309;28;20221;-47
2021/03/26 04:17:07;;;;;;;12.35;11.15;;;;;20.70;100744.00;;;;2070085;28;20210;-48
2021/03/26 04:18:38;;;;;;;11.73;10.63;;;;;20.70;100753.00;;;;2058582;28;20222;-48
2021/03/26 04:19:42;;;;;;;12.20;11.00;;;;;20.70;100754.00;;;;2065416;28;20225;-46
2021/03/26 04:20:48;;;;;;;12.15;10.95;;;;;20.60;100754.00;;;;2052287;28;20238;-46
2021/03/26 04:21:49;;;;;;;12.32;11.02;;;;;20.70;100750.00;;;;2053376;28;21107;-46
2021/03/26 04:22:52;;;;;;;11.57;10.47;;;;;20.70;100755.00;;;;2061101;28;20222;-47
2021/03/26 04:24:01;;;;;;;10.93;9.95;;;;;20.70;100755.00;;;;2062686;28;20448;-46
2021/03/26 04:25:35;;;;;;;12.00;10.90;;;;;20.70;100752.00;;;;2055304;28;20227;-46
2021/03/26 04:26:42;;;;;;;11.48;10.27;;;;;20.70;100745.00;;;;2063251;28;20214;-47
2021/03/26 04:27:44;;;;;;;11.27;10.07;;;;;20.70;100753.00;;;;2064616;28;20217;-47
2021/03/26 04:28:47;;;;;;;12.05;10.95;;;;;20.70;100756.00;;;;2061336;28;20218;-46
2021/03/26 04:30:02;;;;;;;12.05;10.85;;;;;20.60;100756.00;;;;2068126;28;20218;-47
2021/03/26 04:31:04;;;;;;;11.20;10.20;;;;;20.60;100754.00;;;;2063711;28;20756;-46
2021/03/26 04:32:07;;;;;;;11.77;10.68;;;;;20.70;100751.00;;;;2069541;28;20689;-47
2021/03/26 04:33:07;;;;;;;11.23;10.23;;;;;20.70;100755.00;;;;2060847;28;20222;-46
2021/03/26 04:34:09;;;;;;;12.03;10.77;;;;;20.70;100747.00;;;;2061020;28;20708;-46
2021/03/26 04:35:10;;;;;;;11.23;10.23;;;;;20.70;100751.00;;;;2061189;28;20905;-46
2021/03/26 04:36:10;;;;;;;10.63;9.55;;;;;20.60;100750.00;;;;2066308;28;20215;-46
2021/03/26 04:37:30;;;;;;;11.30;10.20;;;;;20.60;100747.00;;;;2061324;28;20291;-47
2021/03/26 04:38:52;;;;;;;11.88;10.77;;;;;20.60;100755.00;;;;2063026;28;20319;-47
2021/03/26 04:40:12;;;;;;;11.88;10.68;;;;;20.70;100753.00;;;;2066862;28;20265;-46
2021/03/26 04:41:32;;;;;;;12.00;10.90;;;;;20.60;100743.00;;;;2062206;28;20300;-46
2021/03/26 04:42:38;;;;;;;11.80;10.70;;;;;20.60;100747.00;;;;2070740;28;20221;-46
2021/03/26 04:43:43;;;;;;;10.70;9.73;;;;;20.40;100751.00;;;;2076544;28;20210;-46
2021/03/26 04:44:49;;;;;;;10.80;9.80;;;;;20.60;100747.00;;;;2076855;28;20260;-46
2021/03/26 04:45:59;;;;;;;12.40;11.20;;;;;20.60;100748.00;;;;2070016;28;20214;-46
2021/03/26 04:47:12;;;;;;;11.93;10.73;;;;;20.60;100741.00;;;;2065993;28;20215;-46
2021/03/26 04:48:44;;;;;;;11.93;10.82;;;;;20.60;100740.00;;;;2076243;28;20237;-46
2021/03/26 04:49:48;;;;;;;11.48;10.48;;;;;20.60;100744.00;;;;2062710;28;20217;-47
2021/03/26 04:51:21;;;;;;;11.82;10.60;;;;;20.60;100740.00;;;;2053464;28;20720;-46
2021/03/26 04:52:32;;;;;;;11.10;10.10;;;;;20.60;100749.00;;;;2068954;28;20206;-47
2021/03/26 04:53:37;;;;;;;10.80;9.82;;;;;20.60;100739.00;;;;2072803;28;20221;-46
2021/03/26 04:54:43;;;;;;;11.68;10.68;;;;;20.60;100726.00;;;;2068544;28;20219;-47
2021/03/26 04:55:54;;;;;;;11.95;10.75;;;;;20.60;100731.00;;;;2061095;28;20218;-46
2021/03/26 04:56:58;;;;;;;12.15;10.98;;;;;20.60;100741.00;;;;2062280;28;20644;-47
2021/03/26 04:58:00;;;;;;;10.63;9.63;;;;;20.60;100748.00;;;;2069082;28;20269;-46
2021/03/26 04:59:02;;;;;;;10.98;9.98;;;;;20.60;100741.00;;;;2069144;28;20257;-46
2021/03/26 05:00:14;;;;;;;11.73;10.63;;;;;20.60;100742.00;;;;2059818;28;20277;-47
2021/03/26 05:01:15;;;;;;;10.63;9.52;;;;;20.60;100743.00;;;;2056813;28;20732;-46
2021/03/26 05:02:16;;;;;;;11.70;10.60;;;;;20.60;100746.00;;;;2060944;28;20214;-46
2021/03/26 05:03:27;;;;;;;12.83;11.53;;;;;20.60;100746.00;;;;2069114;28;20458;-46
2021/03/26 05:04:30;;;;;;;11.10;10.00;;;;;20.60;100743.00;;;;2062130;28;20325;-47
2021/03/26 05:05:31;;;;;;;10.93;9.93;;;;;20.60;100743.00;;;;2061120;28;20211;-46
2021/03/26 05:06:33;;;;;;;11.40;10.30;;;;;20.60;100748.00;;;;2061156;28;20650;-47
2021/03/26 05:07:38;;;;;;;13.00;11.70;;;;;20.60;100747.00;;;;2056705;28;20211;-49
2021/03/26 05:08:42;;;;;;;10.68;9.65;;;;;20.60;100680.00;;;;2053682;28;20255;-47
2021/03/26 05:09:48;;;;;;;10.45;9.55;;;;;20.60;100743.00;;;;2052944;28;20246;-47
2021/03/26 05:10:49;;;;;;;12.40;11.23;;;;;20.60;100745.00;;;;2054303;28;20690;-47
2021/03/26 05:12:03;;;;;;;11.87;10.67;;;;;20.60;100742.00;;;;2058183;28;20313;-47
2021/03/26 05:13:09;;;;;;;11.38;10.25;;;;;20.60;100730.00;;;;2063107;28;20219;-47
2021/03/26 05:14:25;;;;;;;11.90;10.70;;;;;20.60;100751.00;;;;2069741;28;20229;-47
2021/03/26 05:15:27;;;;;;;11.63;10.45;;;;;20.50;100730.00;;;;2070935;28;20747;-47
2021/03/26 05:16:43;;;;;;;11.10;10.15;;;;;20.50;100738.00;;;;2067738;28;20221;-47
2021/03/26 05:17:54;;;;;;;11.63;10.52;;;;;20.60;100737.00;;;;2063747;28;20829;-47